Main page
METAR-TAF:

METAR-TAF

Airports :

Agen La Garenne Airport

Agen, France

latitude: 44-11N, longitude: 000-36E, elevation: 61 m

Current weather observation

The report was made 1 hour and 0 minutes ago, at 11:00 UTC
Wind 4 kt from the East/Southeast
Temperature 8°C
Humidity 71%
Pressure 1016 hPa
Visibility 10 km or more
no clouds below 1500 m and no cumulonimbus

METAR: LFBA 061100Z AUTO 11004KT CAVOK 08/03 Q1016 NOSIG

Time: 13:00 (12:00 UTC)

Forecast

The report was made 1 hour and 0 minutes ago, at 11:00 UTC
Forecast valid from 06 at 12 UTC to 06 at 21 UTC
Wind 3 kt from variable directions
Visibility 10 km or more
no clouds below 1500 m and no cumulonimbus

TAF: LFBA 061100Z 0612/0621 VRB03KT CAVOK

Weather observations and forecasts of more than 4000 airports (METAR and TAF reports).

The available stations are represented by yellow and red dots on the map.

Hover mouse over dot to see the name of the station.

Then click to see weather observations and forecasts.

To change the map : click on the green buttons with a black cross to zoom in, on the green button with a dash to zoom out, or on the green arrows for adjacent maps.


METAR-TAF: